x

8452944 - Conimicut Light, Ri (cptr1) Weather Station

9:54 - Tue 25th Nov 2014 All times are EST. -5 hours from GMT.

  • Wind
    8mph
  • Sea Temp 47°f
  • Luft Temp 49°f
  • Sea Pressure 1019mb
  • 8452944 - Conimicut Light, Ri
  • 8452944 - Conimicut Light, Ri

More Historic Weather Station data

Upgrade to MSW Pro to gain access to the past 30 days of data for over 8000 Wavebouys and Weather Stations around the globe.

Join Pro

Comparision Forecast

View Surf forecast
   
Di 11/25 9:54 8
mph
1019mb 47f 49f
9:48 7 8 mph 1018.9mb 47f 49f
9:42 7 8 mph 1018.8mb 47f 49f
9:36 7 8 mph 1018.5mb 47f 49f
9:30 8 9 mph 1018.5mb 47f 49f
9:24 8 9 mph 1018.8mb 47f 49f
9:18 8 9 mph 1018.7mb 47f 49f
9:12 9 10 mph 1018.5mb 47f 50f
9:06 9 10 mph 1018.4mb 47f 50f
9:00 8 10 mph 1018.2mb 47f 50f
8:54 9 10 mph 1018.1mb 47f 50f
8:48 9 11 mph 1018.3mb 47f 50f
8:42 8 9 mph 1018.2mb 47f 50f
8:36 6 9 mph 1017.9mb 47f 50f
8:30 7 8 mph 1018.3mb - 50f
8:24 6 8 mph 1018.3mb - 50f
8:18 6 9 mph 1018mb 47f 51f
8:12 7 9 mph 1017.8mb 47f 51f
8:06 8 10 mph 1017.6mb 47f 51f
8:00 10 11 mph 1017.5mb 47f 51f
7:54 10 14 mph 1017.3mb 47f 51f
7:48 11 13 mph 1017.2mb 47f 51f
7:42 10 11 mph 1017.1mb 47f 51f
7:36 9 10 mph 1017mb 47f 51f
7:30 9 10 mph 1016.9mb 47f 52f
7:24 8 9 mph 1016.6mb 47f 52f
7:18 6 7 mph 1016.5mb 47f 52f
7:12 7 8 mph 1016.7mb 47f 52f
7:06 9 11 mph 1016.7mb 47f 52f
7:00 10 11 mph 1016.5mb 47f 53f
6:54 10 13 mph 1016.4mb 48f 53f
6:48 10 14 mph 1016.4mb 48f 53f
6:42 10 15 mph 1016.3mb 48f 53f
6:36 13 15 mph 1016.3mb 48f 53f
6:30 13 14 mph 1016.1mb 48f 53f
6:24 11 13 mph 1016.1mb 48f 53f
6:18 10 13 mph 1015.8mb 48f 53f
6:12 10 13 mph 1015.6mb 48f 54f
6:06 10 13 mph 1015.6mb 48f 54f
6:00 11 16 mph 1015.6mb 48f 54f
5:54 11 14 mph 1015.6mb 48f 54f
5:48 11 14 mph 1015.7mb 48f 54f
5:42 11 15 mph 1015.8mb 48f 54f
5:36 13 15 mph 1015.6mb 48f 55f
5:30 13 17 mph 1015.5mb 48f 55f
5:24 14 17 mph 1015.2mb 48f 55f
5:18 11 14 mph 1015.1mb 48f 55f
5:06 10 11 mph 1015mb 48f 55f
5:00 9 10 mph 1014.8mb 48f 54f
4:54 11 14 mph 1014.8mb 48f 55f
4:48 13
mph
1014.8mb 48f 54f
4:42 8 10 mph 1014.5mb 48f 51f
4:36 10 11 mph 1014.6mb 48f 54f
4:30 10 13 mph 1014.4mb 48f 56f
4:24 11 14 mph 1014.3mb 48f 56f
4:18 11 13 mph 1014.2mb 48f 56f
4:12 10 13 mph 1014mb 48f 56f
4:06 11 13 mph 1013.7mb 48f 56f
4:00 10 13 mph 1013.8mb 48f 56f
3:54 8 10 mph 1013.3mb 48f 57f
3:48 9 11 mph 1013.6mb 48f 57f
3:42 9 10 mph 1013.8mb 49f 57f
3:36 9 14 mph 1013.4mb 49f 57f
3:30 10 13 mph 1013.6mb 49f 57f
3:24 10 14 mph 1013.3mb 49f 57f
3:18 10 13 mph 1013.1mb 49f 56f
3:12 13 14 mph 1013.4mb 49f 57f
3:06 13 14 mph 1013.4mb 49f 57f
3:00 11 14 mph 1013.1mb 49f 58f
2:54 11 14 mph 1013.3mb 49f 57f
2:48 10 14 mph 1013.6mb 49f 57f
2:42 10 14 mph 1013.4mb 49f 58f
2:36 9 10 mph 1013.1mb 49f 58f
2:30 9 13 mph 1013.1mb 49f 58f
2:24 8 14 mph 1012.9mb 49f 58f
2:18 10 13 mph 1013.2mb 49f 58f
2:06 10 14 mph 1013mb 49f 58f
2:00 10 13 mph 1013.1mb 49f 58f
1:54 11 15 mph 1013.1mb 49f 58f
1:48 11 14 mph 1013.1mb 49f 58f
1:42 13 17 mph 1013mb 48f 58f
1:36 14 15 mph 1013.2mb 48f 58f
1:30 13 14 mph 1013mb 48f 58f
1:24 13 14 mph 1012.8mb 48f 58f
1:18 13 15 mph 1012.8mb 48f 59f
1:12 13 15 mph 1012.8mb 48f 59f
1:06 13 15 mph 1013mb 48f 59f
1:00 11 14 mph 1012.8mb 48f 58f
12:54 11 15 mph 1012.8mb 48f 59f
12:48 11 14 mph 1012.8mb 48f 59f
12:42 11 15 mph 1012.7mb 48f 59f
12:36 11 14 mph 1012.8mb 47f 59f
12:30 10 14 mph 1012.8mb 47f 59f
12:24 13 15 mph 1013mb 47f 59f
12:18 11 14 mph 1013mb 47f 58f
12:12 14 17 mph 1013mb 47f 59f
12:06 13 16 mph 1013.1mb 47f 60f
12:00 14 17 mph 1013.3mb 47f 60f
11:54 15 17 mph 1013.3mb 47f 60f
11:48 14 16 mph 1013.2mb 47f 59f
11:42 14 20 mph 1013.1mb 47f 61f
11:36 20 23 mph 1013.2mb 47f 61f
11:30 17 21 mph 1013.1mb 47f 61f
11:24 14 17 mph 1013mb 47f 60f
11:18 16 21 mph 1013.1mb 47f 60f
11:12 15 21 mph 1012.9mb 47f 60f
11:06 14 15 mph 1013mb 47f 60f
11:00 15 17 mph 1012.9mb 47f 61f
10:54 11 18 mph 1012.8mb 47f 62f
10:48 15 20 mph 1013mb 47f 62f
10:42 14 18 mph 1012.7mb 47f 62f
10:36 14 18 mph 1012.5mb 47f 62f
10:30 14 20 mph 1012.7mb 47f 62f
10:24 16 20 mph 1012.4mb 47f 62f
10:18 15 20 mph 1012.4mb 47f 62f
10:12 10 15 mph 1012.4mb 47f 56f
10:06 10 11 mph 1012.4mb 46f 55f
10:00 9 13 mph 1012.4mb 46f 54f
9:54 9 11 mph 1012.3mb 46f 56f
9:48 9 13 mph 1012.5mb 46f 56f
9:42 10 13 mph 1012.4mb 46f 56f
9:36 10 13 mph 1012.4mb 46f 56f
9:30 9 10 mph 1012.4mb 46f 56f
9:24 8 10 mph 1012.4mb 46f 56f
9:18 8 10 mph - - -
9:12 8 10 mph - - -
9:06 8 9 mph - - -
9:00 7 9 mph 1011.9mb 46f 55f
8:54 6 7 mph 1011.9mb 46f 54f
8:48 7 8 mph 1011.8mb 46f 53f
8:42 8 9 mph 1011.8mb 46f 52f
8:36 8 9 mph 1011.7mb 46f 53f
8:30 9 11 mph 1011.5mb 46f 53f
8:24 10 11 mph 1011.4mb 46f 54f
8:18 10 13 mph 1011.5mb 46f 54f
8:12 11 13 mph 1011.7mb 46f 55f
8:06 10 14 mph 1011.5mb 46f 55f
8:00 11 14 mph 1011.6mb 46f 54f
7:54 13 14 mph 1011.8mb 46f 53f
7:48 11 14 mph 1011.5mb 46f 54f
7:42 13
mph
1011.3mb 46f 56f
7:36 13 14 mph 1011.1mb 46f 53f
7:30 14
mph
1011.1mb 46f 52f
7:24 13 14 mph 1011.1mb 47f 52f
7:18 13
mph
1011mb 47f 55f
7:12 11 14 mph 1011mb 47f 56f
7:06 10 14 mph 1010.9mb 47f 56f
7:00 13 15 mph 1011mb 47f 54f
6:54 15 16 mph 1011mb 47f 53f
6:48 16 17 mph 1010.5mb 47f 53f
6:42 17 18 mph 1010.5mb 47f 53f
6:36 16 17 mph 1010.4mb 47f 52f
6:30 17
mph
1010.4mb 47f 52f
6:24 16 17 mph 1010.4mb 47f 53f
6:18 15
mph
1010.4mb 47f 52f
6:12 14
mph
1010.3mb 47f 53f
6:06 13
mph
1010.2mb 47f 52f
6:00 11
mph
1010.2mb 47f 53f
5:54 11
mph
1010.2mb 47f 53f
5:48 10
mph
1010.2mb 47f 56f
5:42 9 10 mph 1010mb 47f 57f
5:36 10 11 mph 1009.9mb 47f 57f
5:30 10 13 mph 1010mb 47f 56f
5:24 14 15 mph 1010mb 47f 56f
5:18 11 13 mph 1009.8mb 47f 56f
5:12 11 15 mph 1009.7mb 47f 55f
5:06 14 17 mph 1009.6mb 47f 52f
5:00 17 18 mph 1009.6mb 47f 53f
4:54 16
mph
1009.2mb 47f 52f
4:48 15
mph
1008.8mb 47f 53f
4:42 14 15 mph 1008.7mb 47f 53f
4:36 13 14 mph 1008.8mb 47f 54f
4:30 11 13 mph 1008.5mb 47f 54f
4:24 13 16 mph 1008.7mb 47f 53f
4:18 16 20 mph 1008.8mb 47f 53f
4:12 18 20 mph 1008.9mb 47f 53f
4:06 20
mph
1008.7mb 47f 53f
4:00 17 18 mph 1008.5mb 47f 52f
3:54 15 17 mph 1008mb 47f 53f
3:48 16
mph
1008.1mb 47f 53f
3:42 15 17 mph 1007.8mb 47f 53f
3:36 16 17 mph 1007.9mb 47f 53f
3:30 16 18 mph 1008.1mb 47f 53f
3:24 13 14 mph 1007.9mb 47f 53f
3:18 13 14 mph 1008mb 47f 54f
3:12 14 17 mph 1008mb 47f 53f
3:06 14 16 mph 1007.8mb 47f 52f
3:00 16 18 mph 1007.7mb 47f 52f
2:54 16 18 mph 1007.7mb 47f 52f
2:48 18 21 mph 1007.8mb 47f 53f
2:42 21 22 mph 1007.7mb 47f 54f
2:36 22 24 mph 1007.5mb 47f 54f
2:30 23 24 mph 1007.5mb 47f 54f
2:24 24
mph
1007.5mb 47f 54f
2:18 23 24 mph 1007.5mb 46f 54f
2:12 23 24 mph 1007.6mb 46f 54f
2:06 21 22 mph 1007.6mb 46f 53f
2:00 18 20 mph 1007.4mb 46f 53f
1:54 17 20 mph 1007.4mb 46f 53f
1:48 14 15 mph 1007.3mb 46f 53f
1:42 15 20 mph 1007.5mb 46f 53f
1:36 18 20 mph 1007.5mb 46f 53f
1:30 18 22 mph 1007.6mb 46f 53f
1:24 20 25 mph 1007.6mb 46f 53f
1:18 23 24 mph 1007.3mb 46f 54f
1:12 23 25 mph 1007.3mb 46f 54f
1:06 24 26 mph 1007.1mb 46f 55f
1:00 25 26 mph 1007mb 46f 54f
12:54 23 25 mph 1007mb 46f 54f
12:48 23 24 mph 1006.9mb 46f 53f
12:42 20 21 mph 1006.7mb 46f 53f
12:36 16 21 mph 1006.8mb 46f 51f
12:30 20 21 mph 1006.8mb 46f 53f
12:24 18 21 mph 1006.7mb 46f 53f
12:18 21
mph
1006.7mb 46f 54f
12:12 18 20 mph 1006.6mb 46f 53f
12:06 17 18 mph 1006.7mb 46f 53f
12:00 16 17 mph 1006.7mb 46f 53f
Mo 11/24 11:54 17
mph
1006.7mb 46f 53f
11:48 16
mph
1006.5mb 46f 54f
11:42 16 17 mph 1006.2mb 46f 55f
11:36 16
mph
1006.3mb 46f 53f
11:30 16 18 mph 1006.4mb 46f 53f
11:24 17 18 mph 1006.6mb 46f 53f
11:18 16 17 mph 1006.4mb 46f 53f
11:12 16 17 mph 1006.4mb 46f 54f
11:06 17
mph
1006.4mb 46f 53f
11:00 17
mph
1006.5mb 46f 54f
10:54 17 20 mph 1006.5mb 46f 53f
10:48 16 17 mph 1006.5mb 46f 53f
10:42 16 17 mph 1006.4mb 46f 54f
10:36 16 20 mph 1006.3mb 46f 54f
10:30 20 22 mph 1006.4mb 46f 54f
10:24 21 22 mph 1006.3mb 46f 53f
10:18 20 22 mph 1006.1mb 46f 54f
10:12 20 23 mph 1006.2mb 46f 54f
10:06 22 23 mph 1006.1mb 46f 54f
10:00 20 22 mph 1006.1mb 46f 55f
9:54 20 21 mph 1006.1mb 46f 56f
9:48 20 21 mph 1006.1mb 46f 55f
9:42 18 21 mph 1006.2mb 46f 55f
9:36 17 21 mph 1006.1mb 46f 56f
9:30 16 20 mph 1006.2mb 46f 57f
9:24 17 21 mph 1006.2mb 46f 56f
9:18 17 21 mph 1006.2mb 46f 57f
9:12 21 24 mph 1006.1mb 46f 59f
9:06 16 20 mph 1006mb 46f 58f
9:00 20 23 mph 1005.9mb 46f 60f
8:54 20 24 mph 1006mb 46f 59f
8:48 18 23 mph 1006mb 46f 59f
8:42 17 22 mph 1006mb 46f 59f
8:36 20 22 mph 1006mb 46f 59f
8:30 21 25 mph 1005.9mb 46f 59f
8:24 22 25 mph 1005.9mb 46f 60f
8:18 21 26 mph 1005.8mb 46f 59f
8:12 22 28 mph 1005.9mb 46f 60f
8:06 22 28 mph 1005.8mb 46f 60f
8:00 23 29 mph 1005.7mb 46f 60f
7:54 21 26 mph 1005.5mb 46f 59f
7:48 24 29 mph 1005.6mb 46f 60f
7:42 23 31 mph 1005.6mb 46f 60f
7:36 23 29 mph 1005.5mb 46f 60f
7:30 24 31 mph 1005.4mb 46f 60f
7:24 24 37 mph 1005.3mb 46f 59f
7:18 29 36 mph 1005.2mb 46f 60f
7:12 28 37 mph 1005.1mb 46f 60f
7:06 26 31 mph 1005.1mb 46f 60f
7:00 28 34 mph 1005.2mb 46f 60f
6:54 26 36 mph 1005.2mb 46f 60f
6:48 28 34 mph 1005.1mb 46f 60f
6:42 28 33 mph 1005.2mb 46f 60f
6:36 28 37 mph 1005.1mb 46f 60f
6:30 29 41 mph 1005.2mb 46f 60f
6:24 25 36 mph 1004.9mb 46f 60f
6:18 28 37 mph 1004.9mb 46f 60f
6:12 28 36 mph 1004.6mb 46f 58f
6:06 31 38 mph 1004.6mb 47f 59f
6:00 30 37 mph 1004.2mb 47f 57f
5:54 31 37 mph 1004mb 47f 57f
5:48 30 34 mph 1003.8mb 47f 57f
5:42 29 34 mph 1003.9mb 47f 57f
5:36 25 31 mph 1004.1mb 47f 56f
5:30 29 37 mph 1004mb 47f 58f
5:24 28 37 mph 1004.1mb 47f 58f
5:18 25 31 mph 1004.1mb 47f 57f
5:12 28 36 mph 1004.2mb 47f 59f
5:06 29 32 mph 1004mb 47f 58f
5:00 28 34 mph 1004.1mb 47f 59f
4:54 28 34 mph 1004.2mb 46f 58f
4:48 32 37 mph 1004mb 46f 58f
4:42 31 34 mph 1003.7mb 46f 56f
4:36 25 34 mph 1003.7mb 46f 56f
4:30 25 34 mph 1003.7mb 46f 56f
4:18 28 30 mph 1003.8mb 46f 57f
4:06 24 29 mph 1003.8mb 46f 56f
4:00 28 30 mph 1003.7mb 46f 57f
3:54 22 28 mph 1003.6mb 46f 56f
3:48 24 26 mph 1003.7mb 46f 56f
3:42 25 28 mph 1003.7mb 46f 56f
3:36 22 25 mph 1003.5mb 46f 56f
3:30 25 29 mph 1003.5mb 46f 56f
3:24 28 30 mph 1003.5mb 46f 56f
3:18 24 32 mph 1003.6mb 46f 56f
3:12 25 30 mph 1003.6mb 46f 56f
3:06 28 32 mph 1003.6mb 46f 57f
3:00 26 30 mph 1003.5mb 46f 56f
2:54 25 32 mph 1003.8mb 46f 56f
2:48 28 32 mph 1003.8mb 46f 57f
2:42 29 30 mph 1003.8mb 46f 57f
2:36 29 31 mph 1003.8mb 46f 57f
2:30 28 30 mph 1003.7mb 46f 57f
2:24 26 31 mph 1003.8mb 46f 57f
2:18 22 26 mph 1003.9mb 46f 56f
2:06 26 31 mph 1004mb 46f 57f
2:00 28 30 mph 1003.9mb 46f 57f
1:54 28 30 mph 1003.9mb 46f 57f
1:48 24 29 mph 1004.1mb 46f 56f
1:42 28 31 mph 1004.2mb 46f 57f
1:36 29 33 mph 1004.3mb 46f 58f
1:30 28 31 mph 1004.3mb 45f 57f
1:24 30 33 mph 1004.3mb 45f 57f
1:18 30 32 mph 1004.3mb 45f 57f
1:12 30 34 mph 1004.3mb 45f 57f
1:06 30 33 mph 1004.3mb 45f 57f
1:00 30 33 mph 1004.4mb 45f 58f
12:54 29 37 mph 1004.5mb 45f 57f
12:48 29 32 mph 1004.6mb 45f 58f
12:42 29 31 mph 1004.8mb 45f 57f
12:36 29 36 mph 1004.8mb 45f 58f
12:30 28 31 mph 1004.9mb 45f 57f
12:24 29 32 mph 1004.8mb 45f 58f
12:18 28 32 mph 1005mb 45f 57f
12:12 29 37 mph 1005.1mb 45f 57f
12:06 25 33 mph 1005.2mb 45f 56f
12:00 29 31 mph 1005.3mb 45f 57f
11:54 29 33 mph 1005.3mb 45f 56f
11:48 30 32 mph 1005.2mb 45f 57f
11:42 30 32 mph 1005.4mb 45f 56f
11:36 29 32 mph 1005.3mb 45f 57f
11:30 25 32 mph 1005.6mb 45f 56f
11:24 30 37 mph 1005.5mb 45f 56f
11:18 34 41 mph 1005.5mb 45f 57f
11:12 30 37 mph 1005.6mb 45f 57f
11:06 26 30 mph 1005.9mb 45f 55f
11:00 28 31 mph 1005.9mb 45f 55f
10:54 28 39 mph 1006.1mb 45f 55f
10:48 34 39 mph 1005.5mb 45f 57f
10:42 34 40 mph 1005.4mb 45f 57f
10:36 33 38 mph 1005.5mb 45f 57f
10:30 36 41 mph 1005.6mb 45f 57f
10:24 32 40 mph 1005.8mb 45f 57f
10:18 30 36 mph 1006mb 45f 57f
10:06 31 36 mph 1006.4mb 45f 57f
10:00 26 33 mph 1006.5mb 45f 56f
9:54 30 37 mph 1006.5mb 45f 56f
9:48 31 38 mph 1006.8mb 45f 56f
9:42 32 43 mph 1006.7mb 45f 56f
9:30 43 53 mph 1006.5mb 45f 57f
9:18 41 49 mph 1006.5mb 45f 57f
9:12 43 49 mph 1006.5mb 45f 57f
9:06 37 46 mph 1006.8mb 45f 57f
9:00 38 44 mph 1006.9mb 45f 56f
8:54 38 48 mph 1006.9mb 45f 55f
8:48 34 38 mph 1007.1mb 45f 55f
8:42 34 39 mph 1007.4mb 45f 55f
8:36 33 40 mph 1007.6mb 45f 55f
8:30 32 38 mph 1007.6mb 45f 55f
8:24 34 40 mph 1007.8mb 45f 55f
8:12 34 38 mph 1008.2mb 45f 55f
8:06 34 43 mph 1008.5mb 45f 55f
8:00 38 44 mph 1008.6mb 45f 55f
7:54 37 41 mph 1008.8mb 45f 55f
7:48 33 38 mph 1008.9mb 45f 54f
7:42 37 41 mph 1009.1mb 45f 55f
7:36 37 45 mph 1008.8mb 45f 55f
7:30 39 44 mph 1008.7mb 45f 55f
7:18 38 45 mph 1009.7mb 45f 55f
7:12 41 45 mph 1009.9mb 45f 55f
7:06 38 44 mph 1010mb 45f 54f
7:00 36 39 mph 1010.2mb 45f 54f
6:54 30 34 mph 1010.9mb 45f 54f
6:48 26 31 mph 1011.2mb 45f 53f
6:42 31 37 mph 1011.1mb 45f 54f
6:36 33 37 mph 1011.1mb 45f 54f
6:30 32 37 mph 1011.2mb 45f 55f
6:24 31 36 mph 1011.4mb 45f 54f
6:18 32 37 mph 1011.5mb 45f 55f
6:12 30 37 mph 1011.7mb 45f 55f
6:06 29 34 mph 1011.7mb 45f 55f
6:00 30 33 mph 1011.7mb 45f 54f
5:54 30 37 mph 1011.9mb 45f 54f
5:48 31 37 mph 1012mb 45f 55f
5:30 25 31 mph 1012.3mb 45f 55f
5:24 26 32 mph 1012.2mb 45f 55f
5:18 26 29 mph 1012.2mb 45f 55f
5:12 26 31 mph 1012.3mb 45f 55f
5:06 25 30 mph 1012.5mb 45f 54f
5:00 26 30 mph 1012.7mb 45f 55f
4:54 24 31 mph 1012.7mb 45f 54f
4:48 25 28 mph 1012.7mb 45f 54f
4:42 25 29 mph 1012.8mb 45f 54f
4:36 28 30 mph 1013mb 45f 54f
4:30 25 28 mph 1013.4mb 45f 53f
4:24 25 29 mph 1013.7mb 45f 54f
4:18 26 31 mph 1014mb 45f 54f
4:12 29 31 mph 1014.2mb 45f 54f
4:06 26 30 mph 1014.3mb 45f 54f
4:00 25 29 mph 1014.4mb 45f 53f
3:54 22 23 mph 1014.5mb 45f 53f
3:42 17 20 mph 1014.9mb 45f 52f
3:36 10 15 mph 1015mb 45f 52f
3:30 7 10 mph 1015mb 45f 50f
3:24 6 9 mph 1015.1mb 45f 47f
3:18  -  3 mph 1015.6mb 45f 45f
3:12 3 6 mph 1015.6mb 45f 46f
3:06 2 5 mph 1015.8mb 45f 46f
3:00 1 3 mph 1016mb 45f 45f
2:54 1 3 mph 1016.1mb 45f 46f
2:48 3 6 mph 1016.3mb 45f 47f
2:42 5
mph
1016.4mb 45f 47f
2:36 3 6 mph 1016.6mb 45f 47f
2:30 5 7 mph 1016.7mb 45f 47f
2:24 7 9 mph 1016.8mb 45f 46f
2:18 8
mph
1016.7mb 45f 46f
2:12 6
mph
1017mb 45f 45f
2:06 5 6 mph 1017.1mb 45f 44f
2:00 3 5 mph 1017.2mb 45f 44f
1:54 1 2 mph 1017.4mb 45f 44f
1:48 1 2 mph 1017.4mb 45f 44f
1:42  -  2 mph 1017.6mb 45f 44f
1:36 1 2 mph 1017.6mb 45f 44f
1:30 1 2 mph 1017.6mb 45f 44f
1:24 2
mph
1017.7mb 45f 44f
1:18 2
mph
1017.7mb 45f 45f
1:12 2 3 mph 1017.7mb 45f 45f
1:06 3 5 mph 1017.7mb 45f 46f
1:00 2 3 mph 1017.8mb 45f 45f
12:54 2 3 mph 1017.9mb 45f 46f
12:48 3
mph
1018.1mb 45f 46f
12:42 2 5 mph 1018.2mb 45f 46f
12:36 5 6 mph 1018.3mb 45f 46f
12:30 6 7 mph 1018.4mb 45f 46f
12:24 7
mph
1018.4mb 45f 46f
12:18 6
mph
1018.4mb 45f 46f
12:12 6
mph
1018.5mb 45f 46f
12:06 5 7 mph 1018.7mb 45f 46f
12:00 5 7 mph 1018.7mb 45f 46f
So 11/23 11:54 6 7 mph 1018.9mb 45f 46f
11:48 7
mph
1019mb 45f 46f
11:42 5 8 mph 1019.1mb 45f 46f
11:36 8
mph
1019.2mb 45f 46f
11:30 7 8 mph 1019.4mb 45f 47f
11:24 6 7 mph 1019.4mb 45f 47f
11:12 6
mph
1019.5mb 45f 46f
11:06 6
mph
1019.6mb 45f 46f
11:00 5 7 mph 1019.8mb 45f 46f
10:54 7 8 mph 1019.9mb 45f 46f
10:48 7
mph
1019.9mb 45f 46f
10:42 6 7 mph 1020mb 45f 46f
10:36 6 7 mph 1020.1mb 45f 46f
10:30 6
mph
1020.2mb 45f 46f
10:24 5 6 mph 1020.2mb 45f 45f
10:12 6
mph
1020.3mb 45f 45f
10:00 6
mph
1020.4mb 45f 45f
9:54 6
mph
1020.3mb 45f 45f
9:48 6 7 mph 1020.3mb 45f 45f
9:42 6 7 mph 1020.3mb 45f 45f
9:36 7 8 mph 1020.3mb 45f 45f
9:30 7 8 mph 1020.3mb 45f 45f
9:24 7 9 mph 1020.6mb 45f 45f
9:18 8 10 mph 1020.6mb 45f 46f
9:12 10
mph
1020.6mb 45f 46f
9:06 10 11 mph 1020.6mb 45f 46f
9:00 10 11 mph 1020.5mb 45f 46f
8:54 11 13 mph 1020.6mb 45f 46f
8:48 10 11 mph 1020.6mb 45f 46f
8:42 10 11 mph 1020.6mb 45f 46f
8:36 10
mph
1020.6mb 45f 46f
8:30 9 14 mph 1020.7mb 45f 46f
8:24 13 14 mph 1020.7mb 45f 46f
8:18 14 15 mph 1020.6mb 45f 46f
8:12 14
mph
1020.6mb 45f 46f
8:06 14
mph
1020.6mb 45f 46f
8:00 11 13 mph 1020.7mb 45f 46f
7:54 10 11 mph 1020.7mb 45f 45f
7:48 10 11 mph 1020.8mb 45f 45f
7:42 11
mph
1021mb 45f 45f
7:36 9
mph
1020.9mb 45f 45f
7:30 7
mph
1020.9mb 45f 45f
7:24 7 8 mph 1020.8mb 45f 46f
7:18 7
mph
1020.6mb 45f 46f
7:12 7 8 mph 1020.6mb 45f 46f
7:06 7 8 mph 1020.7mb 45f 46f
7:00 8
mph
1020.8mb 45f 46f
6:48 7 10 mph 1020.9mb 45f 47f
6:42 10 11 mph 1021mb 45f 46f
6:36 11
mph
1021.1mb 45f 46f
6:30 11 13 mph 1021.1mb 45f 46f
6:24 13 14 mph 1021.1mb 45f 46f
6:18 14 15 mph 1021.1mb 45f 47f
6:12 14 15 mph 1021.1mb 45f 47f
6:06 14
mph
1021.3mb 45f 47f
6:00 10 11 mph 1021.2mb 45f 47f
5:54 8 9 mph 1021mb 45f 47f
5:48 8 10 mph 1020.8mb 45f 48f
5:42 11
mph
1020.8mb 45f 48f
5:36 11 13 mph 1020.7mb 45f 48f
5:30 13
mph
1020.7mb 45f 48f
5:24 11 13 mph 1020.6mb 45f 48f
5:18 13
mph
1020.6mb 46f 48f
5:12 10 11 mph 1020.5mb 46f 48f
5:06 10
mph
1020.5mb 46f 48f
5:00 10 11 mph 1020.6mb 46f 48f
4:54 13 15 mph 1020.6mb 46f 49f
4:48 15 17 mph 1020.7mb 46f 49f
4:42 18 20 mph 1020.6mb 46f 48f
4:36 18 20 mph 1020.6mb 46f 49f
4:30 16 17 mph 1020.5mb 46f 49f
4:24 14 16 mph 1020.4mb 46f 48f
4:18 16 17 mph 1020.3mb 46f 48f
4:12 15 17 mph 1020.3mb 46f 48f
4:06 17 20 mph 1020.2mb 46f 48f
4:00 15 17 mph 1020.2mb 46f 48f
3:54 15 20 mph 1020.3mb 46f 49f
3:48 18 20 mph 1020.2mb 46f 49f
3:42 20
mph
1020.3mb 46f 49f
3:36 14 16 mph 1020.3mb 46f 49f
3:30 13 17 mph 1020.3mb 46f 49f
3:24 16 17 mph 1020.2mb 46f 49f
3:18 14
mph
1020.1mb 46f 49f
3:12 10 14 mph 1020.2mb 45f 49f
3:06 11 14 mph 1020.1mb 45f 49f
3:00 10 11 mph 1020mb 45f 49f
2:54 8 10 mph 1020mb 45f 50f
2:48 9
mph
1020.1mb 45f 51f
2:42 10 11 mph 1019.9mb 45f 51f
2:36 10 11 mph 1019.9mb 45f 51f
2:30 11 13 mph 1019.8mb 45f 53f
2:24 11 15 mph 1019.8mb 45f 54f
2:18 15 16 mph 1019.9mb 45f 53f
2:12 15 16 mph 1019.8mb 45f 52f
2:06 13 14 mph 1019.9mb 45f 51f
2:00 10 13 mph 1019.9mb 45f 50f
1:54 10 11 mph 1020mb 45f 49f
1:48 11 13 mph 1020mb 45f 49f
1:42 10 11 mph 1019.9mb 45f 49f
1:36 8 10 mph 1019.9mb 45f 50f
1:30 8 9 mph 1019.9mb 45f 50f
1:24 8 10 mph 1019.8mb 45f 50f
1:18 9
mph
1019.9mb 45f 49f
1:12 8 9 mph 1019.8mb 45f 50f
1:06 8 11 mph 1020mb 45f 49f
1:00 10 11 mph 1020mb 45f 49f
12:54 10 11 mph 1020mb 45f 49f
12:48 10 11 mph 1020mb 45f 49f
12:42 10 13 mph 1020.1mb 45f 50f
12:36 10 13 mph 1020.1mb 45f 49f
12:30 7 14 mph 1020.1mb 45f 51f
12:24 13 14 mph 1020.4mb 45f 54f
12:18 11 15 mph 1020.4mb 45f 50f
12:12 11 13 mph 1020.4mb 45f 49f
12:06 9 11 mph 1020.5mb 45f 49f
12:00 11 14 mph 1020.6mb 45f 49f
11:54 14
mph
1020.7mb 45f 48f
11:48 13 14 mph 1020.8mb 45f 48f
11:42 13 14 mph 1020.9mb 45f 47f
11:36 10
mph
1021mb 45f 47f
11:30 9 10 mph 1020.9mb 45f 48f
11:24 9 11 mph 1020.9mb 45f 48f
11:18 10 13 mph 1021mb 45f 47f
11:12 10 13 mph 1021.1mb 45f 48f
11:06 13 14 mph 1021.2mb 45f 48f
11:00 13 14 mph 1021.2mb 45f 47f
10:54 11 13 mph 1021.2mb 45f 47f
10:48 11 13 mph 1021.2mb 44f 47f
10:42 11
mph
1021.4mb 44f 47f
10:36 10 11 mph 1021.5mb 44f 47f
10:30 9 10 mph 1021.4mb 44f 47f
10:24 8 11 mph 1021.5mb 44f 46f
10:18 10 11 mph 1021.7mb 44f 46f
10:12 7 9 mph 1021.5mb 45f 47f
10:06 8 9 mph 1021.6mb 45f 46f
10:00 8 9 mph 1021.7mb 45f 46f
9:54 8
mph
1021.9mb 45f 46f
9:48 7 9 mph 1021.9mb 45f 46f
9:42 9 11 mph 1021.8mb 45f 45f
9:36 10 11 mph 1022mb 45f 45f
9:30 10
mph
1021.9mb 45f 45f
9:24 8 9 mph 1021.8mb 45f 45f
9:18 9 10 mph 1021.7mb 45f 45f
9:12 9
mph
1021.6mb 45f 45f
9:06 8
mph
1021.5mb 45f 45f
9:00 7 10 mph 1021.5mb 45f 45f
8:54 10 11 mph 1021.6mb 45f 45f
8:48 8 9 mph 1021.7mb 45f 45f
8:42 7 8 mph 1021.8mb 45f 45f
8:36 7 8 mph 1021.7mb 45f 45f
8:30 8 9 mph 1021.7mb 45f 46f
8:24 7 9 mph 1021.6mb 45f 46f
8:18 9 13 mph 1021.4mb 45f 46f
8:12 10 13 mph 1021.3mb 45f 45f
8:06 10 11 mph 1021.2mb 45f 45f
8:00 9 10 mph 1021.4mb 45f 45f
7:54 10 13 mph 1021.5mb 45f 45f
7:48 10 11 mph 1021.4mb 45f 45f
7:42 10 11 mph 1021.2mb 45f 45f
7:36 9 11 mph 1021.2mb 45f 44f
7:30 9 13 mph 1021mb 45f 44f
7:24 9 10 mph 1021mb 44f 44f
7:18 9 13 mph 1021mb 44f 44f
7:12 13 16 mph 1020.9mb 44f 44f
7:06 15 16 mph 1020.9mb 44f 44f
7:00 15 16 mph 1020.9mb 44f 44f
6:54 14 16 mph 1020.7mb 44f 44f
6:48 11 14 mph 1020.5mb 44f 44f
6:42 11 13 mph 1020.4mb 44f 44f
6:36 10 11 mph 1020.5mb 44f 44f
6:30 10 14 mph 1020.5mb 44f 44f
6:24 13 14 mph 1020.5mb 44f 44f
6:18 14 15 mph 1020.4mb 44f 44f
6:12 13 15 mph 1020.3mb 44f 44f
6:06 14 15 mph 1020.3mb 44f 44f
6:00 15 17 mph 1020.3mb 44f 44f
5:54 16 17 mph 1020.1mb 44f 44f
5:48 16 17 mph 1020.2mb 44f 44f
5:42 15 16 mph 1020.3mb 44f 44f
5:36 14 15 mph 1020.2mb 44f 44f
5:30 14 15 mph 1020.2mb 44f 44f
5:24 11 13 mph 1020.2mb 44f 44f
5:18 11 14 mph 1020.3mb 44f 44f
5:12 10 13 mph 1020.1mb 44f 44f
5:06 13 14 mph 1020.1mb 44f 44f
5:00 14 15 mph 1020.1mb 44f 44f
4:54 13 14 mph 1020.1mb 44f 44f
4:48 13 14 mph 1020.2mb 44f 44f
4:42 11 13 mph 1020.2mb 44f 44f
4:36 10 11 mph 1020.3mb 44f 44f
4:30 9 11 mph 1020.3mb 44f 45f
4:24 9 11 mph 1020.3mb 44f 45f
4:18 9 14 mph 1020.2mb 44f 45f
4:12 9 10 mph 1020.2mb 44f 45f
4:06 9 10 mph 1020.2mb 44f 45f
4:00 8 11 mph 1020.3mb 44f 45f
3:54 10 13 mph 1020.2mb 44f 45f
3:48 8 11 mph 1020.2mb 44f 45f
3:42 9 13 mph 1020.3mb 44f 45f
3:36 11 15 mph 1020.4mb 44f 45f
3:30 10 15 mph 1020.3mb 44f 45f
3:24 11 14 mph 1020.2mb 44f 45f
3:18 11 14 mph 1020.1mb 44f 45f
3:12 11 15 mph 1020.1mb 44f 45f
3:06 9 13 mph 1020.1mb 44f 45f
3:00 13 17 mph 1020.1mb 44f 45f
2:54 11 14 mph 1020mb 44f 45f
2:48 14 17 mph 1020mb 44f 45f
2:36 11 16 mph 1020.1mb 44f 45f
2:24 10 14 mph 1020.1mb 44f 45f
2:18 13 16 mph 1020.2mb 44f 45f
2:12 11 16 mph 1020.1mb 44f 45f
2:06 13 16 mph 1020.1mb 44f 45f
1:48 13 16 mph 1019.8mb 45f 45f
1:42 14 16 mph 1019.6mb 45f 45f
1:36 14 20 mph 1019.7mb 45f 45f
1:30 11 20 mph 1019.7mb 45f 45f
1:24 16 21 mph 1019.8mb 45f 45f
1:12 18 23 mph 1019.7mb 45f 45f
1:06 17 21 mph 1019.6mb 45f 45f
12:54 17 21 mph 1019.5mb 45f 44f
12:48 16 20 mph 1019.7mb 45f 44f
12:42 16 23 mph 1019.8mb 45f 44f
12:36 17 23 mph 1019.8mb 45f 44f
12:24 17 23 mph 1019.9mb 45f 45f
12:18 20 24 mph 1020mb 45f 45f
12:12 18 22 mph 1020mb 45f 45f
12:00 21 25 mph 1019.8mb 45f 45f
Sa 11/22 11:54 22 31 mph 1019.7mb 45f 45f
11:48 22 25 mph 1019.9mb 45f 45f
11:36 21 29 mph 1019.9mb 45f 45f
11:30 22 25 mph 1020mb 45f 45f
11:24 20 23 mph 1020.1mb 45f 45f
11:18 18 23 mph 1020.1mb 45f 45f
11:12 18 22 mph 1020mb 45f 45f
11:06 21 25 mph 1020mb 45f 45f
11:00 20 26 mph 1019.8mb 45f 45f
10:54 21 23 mph 1019.7mb 45f 45f
10:48 20 23 mph 1020mb 45f 45f
10:42 21 23 mph 1019.9mb 45f 45f
10:36 23 28 mph 1019.8mb 45f 45f
10:18 17 22 mph 1020mb 45f 45f
10:12 16 22 mph 1019.9mb 45f 44f
10:06 20 26 mph 1020.1mb 45f 45f
10:00 20 23 mph 1020.2mb 45f 45f
9:54 18 24 mph 1020.3mb 45f 44f
9:48 18 24 mph 1020.4mb 45f 44f
9:42 18 22 mph 1020.4mb 45f 44f
9:36 16 18 mph 1020.4mb 45f 44f
9:30 14 18 mph 1020.3mb 45f 44f
9:24 14 18 mph 1020.3mb 45f 44f
9:18 14 17 mph 1020.3mb 45f 44f
9:12 15 20 mph 1020.4mb 45f 44f
9:06 15 21 mph 1020.4mb 45f 44f
8:54 14 20 mph 1020.6mb 45f 44f
8:48 17 22 mph 1020.5mb 44f 44f
8:36 17 22 mph 1020.5mb 44f 44f
8:30 15 18 mph 1020.6mb 44f 44f
8:24 17 20 mph 1020.6mb 44f 44f
8:18 17 23 mph 1020.7mb 44f 44f
8:12 18 21 mph 1020.7mb 44f 43f
8:06 17 20 mph 1020.7mb 45f 43f
8:00 18 28 mph 1020.7mb 45f 43f
7:54 17 26 mph 1020.7mb 45f 43f
7:48 21 24 mph 1020.7mb 45f 43f
7:42 17 24 mph 1020.8mb 45f 43f
7:36 18 23 mph 1020.9mb 45f 43f
7:30 20 23 mph 1020.9mb 45f 43f
7:24 21 26 mph 1021.3mb 45f 42f
7:18 16 21 mph 1021.4mb 45f 42f
7:12 18 22 mph 1021.6mb 45f 42f
7:06 16 23 mph 1021.6mb 44f 42f
6:54 17 23 mph 1021.5mb 44f 42f
6:48 20 24 mph 1021.3mb 44f 42f
6:36 18 23 mph 1021.4mb 44f 41f
6:30 18 22 mph 1021.5mb 44f 41f
6:24 21 22 mph 1021.7mb 44f 41f
6:18 18 22 mph 1021.8mb 44f 40f
6:00 16 22 mph 1022.3mb 44f 40f
5:48 18 23 mph 1022.3mb 44f 40f
5:42 20 23 mph 1022.4mb 44f 40f
5:36 22 26 mph 1022.6mb 44f 40f
5:30 21 24 mph 1022.5mb 44f 40f
5:24 21 26 mph 1022.6mb 44f 40f
5:18 24 26 mph 1022.6mb 44f 40f
5:12 20 25 mph 1022.6mb 44f 40f
5:06 22 26 mph 1022.5mb 44f 40f
5:00 22 24 mph 1022.6mb 44f 40f
4:54 21 24 mph 1022.6mb 44f 40f
4:48 21 23 mph 1022.7mb 44f 40f
4:42 21 23 mph 1022.9mb 44f 40f
4:30 21 24 mph 1022.8mb 45f 40f
4:24 22 25 mph 1022.9mb 45f 40f
4:18 24 30 mph 1022.9mb 45f 40f
4:06 22 29 mph 1023.1mb 45f 40f
4:00 23 28 mph 1023.2mb 45f 40f
3:54 23 26 mph 1023.1mb 45f 40f
3:48 23 30 mph 1023.2mb 45f 40f
3:42 23 26 mph 1023.1mb 45f 40f
3:36 25 29 mph 1023.2mb 45f 40f
3:30 23 28 mph 1023mb 45f 41f
3:24 22 24 mph 1023.2mb 45f 41f
3:18 18 24 mph 1023.2mb 45f 41f
3:12 22 24 mph 1023.2mb 45f 41f
3:06 20 23 mph 1023.3mb 45f 41f
3:00 17 20 mph 1023.4mb 45f 41f
2:54 18 24 mph 1023.5mb 45f 42f
2:48 21 28 mph 1023.4mb 45f 42f
2:42 22 29 mph 1023.6mb 45f 41f
2:36 24 29 mph 1023.7mb 45f 42f
2:30 23 25 mph 1023.8mb 45f 42f
2:24 21 29 mph 1023.5mb 45f 42f
2:18 24 30 mph 1023.7mb 45f 42f
2:12 20 26 mph 1023.6mb 45f 42f
2:06 23 26 mph 1023.8mb 45f 42f
2:00 23 26 mph 1024mb 45f 42f
1:54 22 26 mph 1024.2mb 45f 42f
1:48 22 24 mph 1024.2mb 45f 42f
1:42 21 25 mph 1024.3mb 45f 42f
1:36 21 24 mph 1024.5mb 45f 42f
1:30 20 28 mph 1024.5mb 44f 42f
1:24 21 25 mph 1024.6mb 44f 42f
1:18 20 22 mph 1024.6mb 44f 42f
1:12 18 23 mph 1024.8mb 44f 41f
1:06 17 23 mph 1024.7mb 44f 42f
1:00 21 23 mph 1024.8mb 44f 42f
12:54 18 22 mph 1024.9mb 44f 42f
12:48 15 20 mph 1024.8mb 44f 41f
12:36 17 20 mph 1024.8mb 44f 41f
12:30 17 20 mph 1025.2mb 44f 41f
12:24 17 21 mph 1025.4mb 44f 41f
12:12 17 21 mph 1025.7mb 44f 40f
12:06 15 20 mph 1025.6mb 44f 41f
12:00 13 15 mph 1025.8mb 44f 40f
11:54 13 18 mph 1026.1mb 44f 40f
11:48 17 21 mph 1026.4mb 44f 40f
11:42 14 20 mph 1026.5mb 44f 40f
11:36 16 20 mph 1026.5mb 44f 39f
11:30 16 18 mph 1026.8mb 44f 38f
11:24 15 20 mph 1027mb 44f 38f
11:18 15 18 mph 1027.2mb 44f 38f
11:12 13 23 mph 1027.3mb 44f 37f
11:06 17 24 mph 1027.6mb 44f 37f
11:00 18 22 mph 1027.8mb 44f 37f
10:54 21 23 mph 1028.2mb 44f 37f
10:48 18 25 mph 1028.4mb 44f 37f
10:42 22 26 mph 1028.5mb 44f 37f
10:36 22 25 mph 1028.9mb 44f 36f
10:30 18 22 mph 1028.9mb 44f 36f
10:24 18 26 mph 1029mb 44f 36f
10:18 14 20 mph 1029.1mb 44f 36f
10:06 10 15 mph 1029.4mb 44f 35f
10:00 9 16 mph 1029.5mb 44f 35f
9:54 11 14 mph 1029.6mb 44f 34f
9:48 8 11 mph 1029.8mb 44f 34f
9:42 8 10 mph 1030mb 44f 33f
9:36 9 13 mph 1030.1mb 44f 33f
9:30 11 13 mph 1030.2mb 44f 32f
9:24 8 10 mph 1030.1mb 44f 32f
9:00 10 14 mph 1030.6mb 44f 31f
8:54 10 11 mph 1030.6mb 44f 31f
8:48 9 13 mph 1030.7mb 44f 30f
8:42 9 13 mph 1030.8mb 44f 30f
8:36 11 15 mph 1031.1mb 44f 29f
8:30 9 11 mph 1031mb 44f 29f
8:24 9 13 mph 1031mb 44f 29f
8:18 9 13 mph 1031mb 44f 28f
8:12 10 13 mph 1031mb 44f 28f
8:06 11 14 mph 1031.1mb 44f 28f
8:00 10 13 mph 1031.1mb 44f 27f
7:54 9 14 mph 1031mb 44f 27f
7:48 10 14 mph 1031.1mb 44f 26f
7:42 9 13 mph 1031.1mb 44f 27f
7:36 10 14 mph 1031.1mb 44f 26f
7:30 14 16 mph 1031.3mb 44f 26f
7:24 14 15 mph 1031.1mb 44f 26f
7:18 11 15 mph 1031mb 44f 26f
6:42 11 15 mph 1031mb 44f 25f
6:36 11 14 mph 1031mb 44f 26f
6:24 10 13 mph 1031.1mb 44f 25f
6:18 10 13 mph 1031.2mb 44f 25f
6:12 10 13 mph 1031.2mb 44f 25f
6:06 10 14 mph 1031.3mb 44f 25f
6:00 10 13 mph 1031.2mb 44f 26f
5:54 8 13 mph 1031.1mb 44f 26f
5:48 9 10 mph 1031mb 44f 25f
5:42 9 13 mph 1031.1mb 43f 25f
5:00 9 11 mph 1030.8mb 44f 26f
4:54 8 11 mph 1030.7mb 44f 26f
4:48 8 11 mph 1030.7mb 44f 26f
4:42 9 13 mph 1030.8mb 44f 26f
4:36 10 11 mph 1030.9mb 44f 26f
4:30 9 13 mph 1030.9mb 44f 26f
4:24 11 13 mph 1030.9mb 44f 26f
4:18 8 11 mph 1030.9mb 44f 26f
4:12 10 11 mph 1031mb 44f 26f
4:06 10 13 mph 1031mb 44f 26f
4:00 8 11 mph 1030.8mb 44f 26f
3:54 10 14 mph 1031mb 44f 26f
3:48 11 14 mph 1031.1mb 44f 27f